createdAt,value
2022-10-19T00:01:03.084Z,14.47
2022-10-19T00:06:34.033Z,15.87
2022-10-19T00:09:19.110Z,14.60
2022-10-19T00:12:02.104Z,15.50
2022-10-19T00:14:45.111Z,13.67
2022-10-19T00:17:29.518Z,13.10
2022-10-19T00:20:13.521Z,12.37
2022-10-19T00:22:56.490Z,13.70
2022-10-19T00:25:39.542Z,13.47
2022-10-19T00:28:22.504Z,12.93
2022-10-19T00:31:06.478Z,11.60
2022-10-19T00:33:51.073Z,13.40
2022-10-19T00:36:36.190Z,13.30
2022-10-19T00:39:20.086Z,12.30
2022-10-19T00:42:03.101Z,11.63
2022-10-19T00:45:08.711Z,13.27
2022-10-19T00:47:52.130Z,13.07
2022-10-19T00:50:36.617Z,11.47
2022-10-19T00:53:19.803Z,11.83
2022-10-19T00:56:08.796Z,12.70
2022-10-19T00:58:51.952Z,13.43
2022-10-19T01:01:35.684Z,12.20
2022-10-19T01:04:21.177Z,11.67
2022-10-19T01:07:08.040Z,13.87
2022-10-19T01:09:51.146Z,13.07
2022-10-19T01:12:48.774Z,12.17
2022-10-19T01:15:40.063Z,13.10
2022-10-19T01:18:30.970Z,13.47
2022-10-19T01:21:36.025Z,14.10
2022-10-19T01:24:56.254Z,12.97
2022-10-19T01:28:13.407Z,13.07
2022-10-19T01:31:02.926Z,12.43
2022-10-19T01:33:50.138Z,12.60
2022-10-19T01:36:42.098Z,12.10
2022-10-19T01:39:35.342Z,13.27
2022-10-19T01:42:27.636Z,12.37
2022-10-19T01:45:17.502Z,11.90
2022-10-19T01:48:06.753Z,11.23
2022-10-19T01:50:55.147Z,11.37
2022-10-19T01:53:42.821Z,11.77
2022-10-19T01:56:28.470Z,11.40
2022-10-19T01:59:13.766Z,11.63
2022-10-19T02:01:59.267Z,11.67
2022-10-19T02:04:44.464Z,12.10
2022-10-19T02:07:28.694Z,13.10
2022-10-19T02:10:11.857Z,12.83
2022-10-19T02:12:56.486Z,13.43
2022-10-19T02:15:42.440Z,12.47
2022-10-19T02:18:29.816Z,14.20
2022-10-19T02:21:14.311Z,14.87
2022-10-19T02:23:57.474Z,15.87
2022-10-19T02:26:41.731Z,16.03
2022-10-19T02:29:24.804Z,17.83
2022-10-19T02:32:08.486Z,18.13
2022-10-19T02:34:51.500Z,17.70
2022-10-19T02:40:24.242Z,15.17
2022-10-19T02:43:11.594Z,16.80
2022-10-19T02:46:00.794Z,17.33
2022-10-19T02:48:45.091Z,16.20
2022-10-19T02:51:29.354Z,15.50
2022-10-19T02:54:13.781Z,14.33
2022-10-19T02:56:57.155Z,12.90
2022-10-19T02:59:40.202Z,11.63
2022-10-19T03:02:23.219Z,11.50
2022-10-19T03:05:06.704Z,11.00
2022-10-19T03:07:49.878Z,10.57
2022-10-19T03:10:34.299Z,10.47
2022-10-19T03:13:17.296Z,11.37
2022-10-19T03:16:07.509Z,10.60
2022-10-19T03:18:50.748Z,11.37
2022-10-19T03:21:35.700Z,11.87
2022-10-19T03:24:18.942Z,11.27
2022-10-19T03:27:03.362Z,11.10
2022-10-19T03:29:46.357Z,11.87
2022-10-19T03:32:29.396Z,11.83
2022-10-19T03:35:12.369Z,12.10
2022-10-19T03:37:55.428Z,14.03
2022-10-19T03:40:38.604Z,28.50
2022-10-19T03:43:23.083Z,14.30
2022-10-19T03:46:06.288Z,14.70
2022-10-19T03:48:49.633Z,13.10
2022-10-19T03:51:33.454Z,14.87
2022-10-19T03:54:18.356Z,14.77
2022-10-19T03:57:01.324Z,14.80
2022-10-19T03:59:45.751Z,14.80
2022-10-19T04:02:28.773Z,15.60
2022-10-19T04:05:11.894Z,15.10
2022-10-19T04:07:54.891Z,14.70
2022-10-19T04:10:37.881Z,14.53
2022-10-19T04:13:20.867Z,13.80
2022-10-19T04:16:06.280Z,14.03
2022-10-19T04:18:49.434Z,13.53
2022-10-19T04:21:34.625Z,12.73
2022-10-19T04:24:20.094Z,12.87
2022-10-19T04:27:03.155Z,14.60
2022-10-19T04:29:46.157Z,13.50
2022-10-19T04:32:30.591Z,14.30
2022-10-19T04:35:13.623Z,15.30
2022-10-19T04:37:56.619Z,14.73
2022-10-19T04:40:39.919Z,14.73
2022-10-19T04:43:23.317Z,14.30
2022-10-19T04:46:08.644Z,15.53
2022-10-19T04:48:53.606Z,14.67
2022-10-19T04:51:36.640Z,16.77
2022-10-19T04:54:19.712Z,16.73
2022-10-19T04:57:02.681Z,16.47
2022-10-19T04:59:45.714Z,16.23
2022-10-19T05:02:28.703Z,15.83
2022-10-19T05:05:14.021Z,15.30
2022-10-19T05:07:57.047Z,15.97
2022-10-19T05:10:43.105Z,16.97
2022-10-19T05:13:28.513Z,16.63
2022-10-19T05:16:14.547Z,16.73
2022-10-19T05:18:59.057Z,16.23
2022-10-19T05:21:43.400Z,16.17
2022-10-19T05:24:26.506Z,16.30
2022-10-19T05:27:09.498Z,18.07
2022-10-19T05:29:52.536Z,19.80
2022-10-19T05:32:35.664Z,19.97
2022-10-19T05:35:21.551Z,20.23
2022-10-19T05:38:06.927Z,19.77
2022-10-19T05:40:52.943Z,19.60
2022-10-19T05:43:36.752Z,19.17
2022-10-19T05:46:19.766Z,19.57
2022-10-19T05:49:02.740Z,17.87
2022-10-19T05:51:46.389Z,19.63
2022-10-19T05:54:30.795Z,19.03
2022-10-19T05:57:13.910Z,17.63
2022-10-19T05:59:58.438Z,16.87
2022-10-19T06:02:41.439Z,16.80
2022-10-19T06:05:24.386Z,14.73
2022-10-19T06:08:08.169Z,16.03
2022-10-19T06:10:52.815Z,14.97
2022-10-19T06:13:35.951Z,15.80
2022-10-19T06:16:19.927Z,16.20
2022-10-19T06:19:03.291Z,16.47
2022-10-19T06:21:47.168Z,17.43
2022-10-19T06:24:30.124Z,19.20
2022-10-19T06:27:14.603Z,18.80
2022-10-19T06:29:57.695Z,16.23
2022-10-19T06:32:40.793Z,17.03
2022-10-19T06:35:23.835Z,17.57
2022-10-19T06:38:06.823Z,17.93
2022-10-19T06:40:49.985Z,17.80
2022-10-19T06:43:34.541Z,15.83
2022-10-19T06:46:20.681Z,15.00
2022-10-19T06:49:03.955Z,15.97
2022-10-19T06:51:46.987Z,16.87
2022-10-19T06:54:30.336Z,16.80
2022-10-19T06:57:13.301Z,16.43
2022-10-19T06:59:57.723Z,16.83
2022-10-19T07:02:40.707Z,16.77
2022-10-19T07:05:23.721Z,16.07
2022-10-19T07:08:06.768Z,16.60
2022-10-19T07:10:52.108Z,15.53
2022-10-19T07:13:35.665Z,14.63
2022-10-19T07:16:21.718Z,14.97
2022-10-19T07:19:04.983Z,13.93
2022-10-19T07:21:51.266Z,13.00
2022-10-19T07:24:34.295Z,11.80
2022-10-19T07:27:17.284Z,9.90
2022-10-19T07:30:00.342Z,9.50
2022-10-19T07:32:47.063Z,9.03
2022-10-19T07:35:30.261Z,10.17
2022-10-19T07:38:13.358Z,10.20
2022-10-19T07:41:02.356Z,9.83
2022-10-19T07:43:46.936Z,10.03
2022-10-19T07:46:33.520Z,11.07
2022-10-19T07:49:20.022Z,10.87
2022-10-19T07:52:03.019Z,11.43
2022-10-19T07:54:49.524Z,11.33
2022-10-19T07:57:32.549Z,10.97
2022-10-19T08:00:16.242Z,11.53
2022-10-19T08:03:31.712Z,11.60
2022-10-19T08:06:05.223Z,17.00
2022-10-19T08:08:49.077Z,12.50
2022-10-19T08:11:33.714Z,11.77
2022-10-19T08:14:16.699Z,11.33
2022-10-19T08:16:59.697Z,12.60
2022-10-19T08:19:43.549Z,13.77
2022-10-19T08:22:28.209Z,13.40
2022-10-19T08:25:11.229Z,13.87
2022-10-19T08:27:54.338Z,14.80
2022-10-19T08:30:37.867Z,14.80
2022-10-19T08:33:20.818Z,16.40
2022-10-19T08:36:06.105Z,16.77
2022-10-19T08:38:51.698Z,17.03
2022-10-19T08:41:39.019Z,18.57
2022-10-19T08:45:04.813Z,18.10
2022-10-19T08:48:05.899Z,19.20
2022-10-19T08:50:49.744Z,19.07
2022-10-19T08:53:41.511Z,19.87
2022-10-19T08:59:42.059Z,19.73
2022-10-19T09:02:41.685Z,18.33
2022-10-19T09:05:33.642Z,18.40
2022-10-19T09:08:18.017Z,17.40
2022-10-19T09:11:01.230Z,15.07
2022-10-19T09:14:04.231Z,14.77
2022-10-19T09:16:48.069Z,15.37
2022-10-19T09:19:32.423Z,13.30
2022-10-19T09:22:20.594Z,12.27
2022-10-19T09:25:09.670Z,11.13
2022-10-19T09:28:05.626Z,9.40
2022-10-19T09:30:53.249Z,9.03
2022-10-19T09:33:40.373Z,8.03
2022-10-19T09:36:39.266Z,9.33
2022-10-19T09:39:31.204Z,8.80
2022-10-19T09:42:23.073Z,8.80
2022-10-19T09:45:17.551Z,7.77
2022-10-19T09:48:07.245Z,8.40
2022-10-19T09:50:57.785Z,8.23
2022-10-19T09:53:45.855Z,8.60
2022-10-19T09:56:29.297Z,7.30
2022-10-19T09:59:23.071Z,7.43
2022-10-19T10:02:17.534Z,7.13
2022-10-19T10:05:08.955Z,6.80
2022-10-19T10:07:56.428Z,7.43
2022-10-19T10:10:43.663Z,7.07
2022-10-19T10:13:28.772Z,6.50
2022-10-19T10:16:15.325Z,6.80
2022-10-19T10:19:01.012Z,6.60
2022-10-19T10:21:51.084Z,6.20
2022-10-19T10:24:35.466Z,6.18
2022-10-19T10:27:30.216Z,6.10
2022-10-19T10:30:21.297Z,6.18
2022-10-19T10:33:21.163Z,7.13
2022-10-19T10:36:10.423Z,6.53
2022-10-19T10:41:51.693Z,6.72
2022-10-19T10:44:36.837Z,7.25
2022-10-19T10:47:21.530Z,6.82
2022-10-19T10:50:07.833Z,6.93
2022-10-19T10:53:01.964Z,6.82
2022-10-19T10:55:56.612Z,6.80
2022-10-19T10:58:48.338Z,6.60
2022-10-19T11:01:37.847Z,6.53
2022-10-19T11:04:25.523Z,6.40
2022-10-19T11:07:19.488Z,5.90
2022-10-19T11:10:10.169Z,6.68
2022-10-19T11:13:04.357Z,6.43
2022-10-19T11:15:54.069Z,6.60
2022-10-19T11:18:42.452Z,5.82
2022-10-19T11:21:30.835Z,6.53
2022-10-19T11:24:24.120Z,6.32
2022-10-19T11:27:19.675Z,6.70
2022-10-19T11:30:14.522Z,8.40
2022-10-19T11:33:07.185Z,8.37
2022-10-19T11:35:54.084Z,7.97
2022-10-19T11:38:49.595Z,8.20
2022-10-19T11:41:38.977Z,8.67
2022-10-19T11:44:38.662Z,8.30
2022-10-19T11:47:51.655Z,8.83
2022-10-19T11:50:46.616Z,9.83
2022-10-19T11:53:47.493Z,12.13
2022-10-19T11:56:58.112Z,9.17
2022-10-19T12:00:13.500Z,9.20
2022-10-19T12:03:41.570Z,8.80
2022-10-19T12:06:32.950Z,8.00
2022-10-19T12:09:27.383Z,8.20
2022-10-19T12:12:26.368Z,8.40
2022-10-19T12:15:24.878Z,8.97
2022-10-19T12:18:15.632Z,8.33
2022-10-19T12:21:03.159Z,8.53
2022-10-19T12:23:48.118Z,9.20
2022-10-19T12:26:35.816Z,8.40
2022-10-19T12:29:22.747Z,8.83
2022-10-19T12:32:07.212Z,8.87
2022-10-19T12:34:57.827Z,8.13
2022-10-19T12:37:50.874Z,9.20
2022-10-19T12:40:40.230Z,8.97
2022-10-19T12:43:29.812Z,7.13
2022-10-19T12:46:25.586Z,8.57
2022-10-19T12:49:38.457Z,7.63
2022-10-19T12:52:42.186Z,8.00
2022-10-19T12:55:31.461Z,9.53
2022-10-19T12:58:22.745Z,8.90
2022-10-19T13:01:08.381Z,8.63
2022-10-19T13:04:06.802Z,9.47
2022-10-19T13:06:52.541Z,9.60
2022-10-19T13:09:37.944Z,8.67
2022-10-19T13:12:47.695Z,8.87
2022-10-19T13:15:52.255Z,8.10
2022-10-19T13:19:21.415Z,9.10
2022-10-19T13:22:27.766Z,8.87
2022-10-19T13:25:27.215Z,8.40
2022-10-19T13:28:46.735Z,8.17
2022-10-19T13:31:33.125Z,9.07
2022-10-19T13:34:17.635Z,8.80
2022-10-19T13:37:01.977Z,7.93
2022-10-19T13:39:45.160Z,8.97
2022-10-19T13:42:29.454Z,8.00
2022-10-19T13:45:22.896Z,9.57
2022-10-19T13:48:18.436Z,7.83
2022-10-19T13:51:10.250Z,8.70
2022-10-19T13:54:03.087Z,8.50
2022-10-19T13:57:07.106Z,8.50
2022-10-19T14:00:15.077Z,9.83
2022-10-19T14:03:22.607Z,9.40
2022-10-19T14:06:27.696Z,9.60
2022-10-19T14:09:55.970Z,9.40
2022-10-19T14:12:43.021Z,9.90
2022-10-19T14:15:29.213Z,8.67
2022-10-19T14:18:25.730Z,10.07
2022-10-19T14:21:10.123Z,9.67
2022-10-19T14:23:53.168Z,9.37
2022-10-19T14:26:36.303Z,10.20
2022-10-19T14:29:19.315Z,9.30
2022-10-19T14:32:02.482Z,10.80
2022-10-19T14:34:48.978Z,9.70
2022-10-19T14:37:32.266Z,9.07
2022-10-19T14:40:28.058Z,9.30
2022-10-19T14:43:22.888Z,9.10
2022-10-19T14:46:14.255Z,9.70
2022-10-19T14:49:01.904Z,10.37
2022-10-19T14:51:51.580Z,9.27
2022-10-19T14:54:37.290Z,9.40
2022-10-19T14:57:25.876Z,9.40
2022-10-19T15:00:16.544Z,10.93
2022-10-19T15:03:03.071Z,10.73
2022-10-19T15:05:49.710Z,16.97
2022-10-19T15:08:40.212Z,9.87
2022-10-19T15:11:29.909Z,13.33
2022-10-19T15:14:16.185Z,10.63
2022-10-19T15:17:01.866Z,10.80
2022-10-19T15:19:46.088Z,10.43
2022-10-19T15:22:40.658Z,10.33
2022-10-19T15:25:33.741Z,10.87
2022-10-19T15:28:21.747Z,10.73
2022-10-19T15:31:07.951Z,9.83
2022-10-19T15:33:53.719Z,10.90
2022-10-19T15:36:36.698Z,10.73
2022-10-19T15:39:37.078Z,10.63
2022-10-19T15:42:33.332Z,11.20
2022-10-19T15:45:31.387Z,10.80
2022-10-19T15:48:26.888Z,10.17
2022-10-19T15:51:38.947Z,10.73
2022-10-19T15:54:23.912Z,10.87
2022-10-19T15:57:26.788Z,10.87
2022-10-19T16:00:14.034Z,11.87
2022-10-19T16:02:57.071Z,12.27
2022-10-19T16:05:40.177Z,11.20
2022-10-19T16:08:23.218Z,11.57
2022-10-19T16:11:06.354Z,12.60
2022-10-19T16:13:50.840Z,12.53
2022-10-19T16:16:34.284Z,12.90
2022-10-19T16:19:17.302Z,11.77
2022-10-19T16:22:00.371Z,12.93
2022-10-19T16:24:43.512Z,12.93
2022-10-19T16:27:26.594Z,13.40
2022-10-19T16:30:12.929Z,12.87
2022-10-19T16:32:55.948Z,13.10
2022-10-19T16:35:39.179Z,13.30
2022-10-19T16:38:22.211Z,13.17
2022-10-19T16:41:07.450Z,12.10
2022-10-19T16:43:55.611Z,12.97
2022-10-19T16:46:40.358Z,13.30
2022-10-19T16:49:23.352Z,12.60
2022-10-19T16:52:06.337Z,12.10
2022-10-19T16:54:49.386Z,12.93
2022-10-19T16:57:32.466Z,12.03
2022-10-19T17:00:15.662Z,12.27
2022-10-19T17:03:00.136Z,12.50
2022-10-19T17:05:43.100Z,12.93
2022-10-19T17:08:36.678Z,13.07
2022-10-19T17:11:29.298Z,14.27
2022-10-19T17:14:13.658Z,13.83
2022-10-19T17:16:56.898Z,13.83
2022-10-19T17:19:41.565Z,13.17
2022-10-19T17:22:24.645Z,13.33
2022-10-19T17:25:08.136Z,13.80
2022-10-19T17:27:51.845Z,14.00
2022-10-19T17:30:34.908Z,14.50
2022-10-19T17:33:17.955Z,14.80
2022-10-19T17:36:08.440Z,14.27
2022-10-19T17:38:51.622Z,14.57
2022-10-19T17:41:34.791Z,14.63
2022-10-19T17:44:18.902Z,13.33
2022-10-19T17:47:02.266Z,14.47
2022-10-19T17:49:45.241Z,13.83
2022-10-19T17:52:29.673Z,14.97
2022-10-19T17:55:13.610Z,13.67
2022-10-19T17:57:56.759Z,14.03
2022-10-19T18:00:40.551Z,14.60
2022-10-19T18:03:24.335Z,14.53
2022-10-19T18:06:10.884Z,14.43
2022-10-19T18:08:57.671Z,14.40
2022-10-19T18:11:42.790Z,14.93
2022-10-19T18:14:25.888Z,14.20
2022-10-19T18:17:08.944Z,14.43
2022-10-19T18:19:51.968Z,13.53
2022-10-19T18:22:35.089Z,14.23
2022-10-19T18:25:25.991Z,14.00
2022-10-19T18:28:19.634Z,14.30
2022-10-19T18:31:07.215Z,13.50
2022-10-19T18:33:56.180Z,14.30
2022-10-19T18:36:39.440Z,14.90
2022-10-19T18:39:22.960Z,14.27
2022-10-19T18:42:07.378Z,15.07
2022-10-19T18:44:50.410Z,13.80
2022-10-19T18:47:33.425Z,14.90
2022-10-19T18:50:17.641Z,14.10
2022-10-19T18:53:00.647Z,16.03
2022-10-19T18:55:44.046Z,15.27
2022-10-19T18:58:30.450Z,16.17
2022-10-19T19:01:16.092Z,15.40
2022-10-19T19:04:06.564Z,15.60
2022-10-19T19:06:49.650Z,14.80
2022-10-19T19:09:32.691Z,14.97
2022-10-19T19:12:16.077Z,15.77
2022-10-19T19:15:00.486Z,15.43
2022-10-19T19:17:43.485Z,15.00
2022-10-19T19:20:26.492Z,15.57
2022-10-19T19:23:09.527Z,15.83
2022-10-19T19:25:52.590Z,15.00
2022-10-19T19:28:37.893Z,15.73
2022-10-19T19:31:26.013Z,15.43
2022-10-19T19:34:09.580Z,15.47
2022-10-19T19:36:52.674Z,15.33
2022-10-19T19:39:35.639Z,14.63
2022-10-19T19:42:18.631Z,15.83
2022-10-19T19:45:01.616Z,15.23
2022-10-19T19:47:45.998Z,17.17
2022-10-19T19:50:29.018Z,15.63
2022-10-19T19:53:12.031Z,15.00
2022-10-19T19:55:55.486Z,16.63
2022-10-19T19:58:38.495Z,16.93
2022-10-19T20:01:22.292Z,14.73
2022-10-19T20:04:07.221Z,15.60
2022-10-19T20:06:50.301Z,18.27
2022-10-19T20:09:33.647Z,16.50
2022-10-19T20:12:16.661Z,16.83
2022-10-19T20:14:59.756Z,16.67
2022-10-19T20:17:43.391Z,16.43
2022-10-19T20:20:27.817Z,17.50
2022-10-19T20:23:10.836Z,16.30
2022-10-19T20:25:53.808Z,17.43
2022-10-19T20:28:36.823Z,18.80
2022-10-19T20:31:20.743Z,17.73
2022-10-19T20:34:08.935Z,17.67
2022-10-19T20:36:53.329Z,16.83
2022-10-19T20:39:36.294Z,17.97
2022-10-19T20:42:20.353Z,18.13
2022-10-19T20:45:03.358Z,17.80
2022-10-19T20:47:46.363Z,18.63
2022-10-19T20:50:29.407Z,18.23
2022-10-19T20:53:13.772Z,19.93
2022-10-19T20:55:56.745Z,18.10
2022-10-19T20:58:42.401Z,19.30
2022-10-19T21:01:26.193Z,18.27
2022-10-19T21:04:11.791Z,18.57
2022-10-19T21:06:54.985Z,18.93
2022-10-19T21:09:39.455Z,18.93
2022-10-19T21:12:22.459Z,18.77
2022-10-19T21:15:05.862Z,18.97
2022-10-19T21:17:48.987Z,18.43
2022-10-19T21:20:32.111Z,18.30
2022-10-19T21:23:15.157Z,21.27
2022-10-19T21:25:59.650Z,19.07
2022-10-19T21:28:47.110Z,20.00
2022-10-19T21:31:30.592Z,17.70
2022-10-19T21:34:15.157Z,20.60
2022-10-19T21:36:58.619Z,20.70
2022-10-19T21:39:41.619Z,21.07
2022-10-19T21:42:26.013Z,22.47
2022-10-19T21:45:29.150Z,22.30
2022-10-19T21:48:13.044Z,21.93
2022-10-19T21:50:56.015Z,22.40
2022-10-19T21:53:39.016Z,20.50
2022-10-19T21:56:22.742Z,21.03
2022-10-19T21:59:07.267Z,21.20
2022-10-19T22:01:50.354Z,22.00
2022-10-19T22:04:33.386Z,22.60
2022-10-19T22:07:16.439Z,23.57
2022-10-19T22:09:59.411Z,21.43
2022-10-19T22:12:42.402Z,23.20
2022-10-19T22:15:26.821Z,24.17
2022-10-19T22:18:10.171Z,23.90
2022-10-19T22:20:53.155Z,22.67
2022-10-19T22:23:36.603Z,24.33
2022-10-19T22:26:22.069Z,23.70
2022-10-19T22:29:06.813Z,23.60
2022-10-19T22:31:51.168Z,23.07
2022-10-19T22:34:34.161Z,24.73
2022-10-19T22:37:17.216Z,26.73
2022-10-19T22:40:00.285Z,25.63
2022-10-19T22:42:43.255Z,24.97
2022-10-19T22:45:26.195Z,24.87
2022-10-19T22:48:10.537Z,23.80
2022-10-19T22:50:53.761Z,23.60
2022-10-19T22:53:36.746Z,25.53
2022-10-19T22:56:19.737Z,24.60
2022-10-19T22:59:04.086Z,26.57
2022-10-19T23:01:47.109Z,24.63
2022-10-19T23:04:31.643Z,24.97
2022-10-19T23:07:14.629Z,26.80
2022-10-19T23:09:57.653Z,25.67
2022-10-19T23:12:40.709Z,27.47
2022-10-19T23:15:23.677Z,26.53
2022-10-19T23:18:06.641Z,28.57
2022-10-19T23:20:58.956Z,27.77
2022-10-19T23:23:42.406Z,28.00
2022-10-19T23:26:25.909Z,27.90
2022-10-19T23:29:08.841Z,26.07
2022-10-19T23:31:51.835Z,29.23
2022-10-19T23:37:24.071Z,28.57
2022-10-19T23:40:08.071Z,28.67
2022-10-19T23:42:51.090Z,28.13
2022-10-19T23:45:34.078Z,27.10
2022-10-19T23:48:17.519Z,29.80
2022-10-19T23:51:01.995Z,30.07
2022-10-19T23:53:48.494Z,29.87
2022-10-19T23:56:31.551Z,31.23
2022-10-19T23:59:14.521Z,29.20
